createdAt,value
2022-08-17T06:23:10.853Z,84.00
2022-08-17T06:25:52.113Z,84.50
2022-08-17T06:28:32.101Z,83.30
2022-08-17T06:31:05.799Z,82.10
2022-08-17T06:33:37.476Z,81.60
2022-08-17T06:36:29.034Z,81.50
2022-08-17T06:39:18.217Z,81.70
2022-08-17T06:41:51.490Z,81.90
2022-08-17T06:44:43.729Z,82.20
2022-08-17T06:47:28.776Z,82.60
2022-08-17T06:50:01.376Z,83.30
2022-08-17T06:52:42.137Z,83.50
2022-08-17T06:55:45.546Z,83.70
2022-08-17T06:58:16.108Z,83.90
2022-08-17T07:00:46.667Z,84.30
2022-08-17T07:03:29.527Z,84.50
2022-08-17T07:06:29.238Z,85.00
2022-08-17T07:09:09.424Z,85.60
2022-08-17T07:11:56.881Z,85.90
2022-08-17T07:14:32.187Z,85.80
2022-08-17T07:17:13.305Z,85.70
2022-08-17T07:19:43.510Z,85.70
2022-08-17T07:22:57.603Z,85.70
2022-08-17T07:25:21.108Z,85.70
2022-08-17T07:27:52.063Z,85.70
2022-08-17T07:30:29.177Z,85.40
2022-08-17T07:32:58.696Z,85.60
2022-08-17T07:35:31.382Z,85.70
2022-08-17T07:38:29.581Z,85.70
2022-08-17T07:40:56.739Z,85.70
2022-08-17T07:43:29.645Z,85.80
2022-08-17T07:46:18.700Z,85.70
2022-08-17T07:48:50.074Z,85.80
2022-08-17T07:51:33.334Z,85.70
2022-08-17T07:54:14.383Z,85.90
2022-08-17T07:56:55.632Z,85.80
2022-08-17T07:59:30.560Z,85.60
2022-08-17T08:02:14.270Z,85.90
2022-08-17T08:05:00.488Z,85.90
2022-08-17T08:07:40.166Z,85.10
2022-08-17T08:10:13.418Z,85.60
2022-08-17T08:12:41.945Z,85.10
2022-08-17T08:15:13.643Z,85.00
2022-08-17T08:17:55.117Z,85.10
2022-08-17T08:20:50.898Z,84.80
2022-08-17T08:23:28.051Z,85.50
2022-08-17T08:26:20.205Z,85.60
2022-08-17T08:29:06.374Z,84.80
2022-08-17T08:31:48.243Z,84.30
2022-08-17T08:34:58.785Z,83.90
2022-08-17T08:37:33.745Z,84.00
2022-08-17T08:40:15.618Z,83.80
2022-08-17T08:42:56.823Z,84.00
2022-08-17T08:45:49.418Z,84.00
2022-08-17T08:48:56.129Z,83.60
2022-08-17T08:51:38.567Z,83.60
2022-08-17T08:54:26.806Z,83.40
2022-08-17T08:57:33.481Z,83.40
2022-08-17T09:00:11.297Z,83.80
2022-08-17T09:03:06.307Z,83.90
2022-08-17T09:05:52.341Z,83.80
2022-08-17T09:08:52.133Z,84.20
2022-08-17T09:12:01.786Z,85.50
2022-08-17T09:14:54.196Z,85.00
2022-08-17T09:17:48.364Z,85.30
2022-08-17T09:20:27.951Z,85.30
2022-08-17T09:23:06.967Z,85.30
2022-08-17T09:25:46.767Z,85.60
2022-08-17T09:28:27.346Z,85.40
2022-08-17T09:30:59.392Z,85.50
2022-08-17T09:33:28.022Z,85.60
2022-08-17T09:36:29.472Z,86.00
2022-08-17T09:39:39.079Z,86.40
2022-08-17T09:42:22.128Z,86.40
2022-08-17T09:44:58.023Z,86.60
2022-08-17T09:47:31.569Z,86.70
2022-08-17T09:51:01.625Z,87.20
2022-08-17T09:53:12.117Z,87.10
2022-08-17T09:55:47.321Z,87.10
2022-08-17T09:58:20.188Z,87.20
2022-08-17T10:01:02.790Z,87.60
2022-08-17T10:03:35.359Z,87.80
2022-08-17T10:06:13.410Z,88.00
2022-08-17T10:08:56.485Z,88.20
2022-08-17T10:11:45.539Z,88.70
2022-08-17T10:14:44.422Z,88.20
2022-08-17T10:17:17.650Z,89.10
2022-08-17T10:19:51.698Z,90.20
2022-08-17T10:22:34.788Z,90.10
2022-08-17T10:25:21.360Z,90.20
2022-08-17T10:28:19.755Z,90.30
2022-08-17T10:31:05.259Z,90.10
2022-08-17T10:34:20.650Z,90.50
2022-08-17T10:36:53.749Z,90.50
2022-08-17T10:39:31.615Z,90.70
2022-08-17T10:42:15.642Z,90.80
2022-08-17T10:45:14.841Z,90.80
2022-08-17T10:48:22.838Z,90.80
2022-08-17T10:50:56.069Z,90.60
2022-08-17T10:53:32.325Z,90.60
2022-08-17T10:56:14.716Z,90.50
2022-08-17T10:58:52.876Z,90.70
2022-08-17T11:01:32.539Z,90.40
2022-08-17T11:04:18.921Z,90.60
2022-08-17T11:07:16.081Z,90.90
2022-08-17T11:09:52.279Z,91.20
2022-08-17T11:12:38.255Z,91.50
2022-08-17T11:18:08.287Z,91.80
2022-08-17T11:20:57.494Z,92.30
2022-08-17T11:23:30.845Z,92.30
2022-08-17T11:26:00.395Z,92.70
2022-08-17T11:28:35.545Z,93.00
2022-08-17T11:31:38.561Z,93.50
2022-08-17T11:34:17.147Z,93.70
2022-08-17T11:37:06.974Z,94.10
2022-08-17T11:39:53.546Z,93.90
2022-08-17T11:42:33.830Z,94.10
2022-08-17T11:45:10.477Z,94.20
2022-08-17T11:48:15.937Z,93.80
2022-08-17T11:50:47.479Z,93.60
2022-08-17T11:53:36.552Z,93.30
2022-08-17T11:56:09.367Z,93.10
2022-08-17T11:58:45.572Z,93.20
2022-08-17T12:01:32.995Z,93.10
2022-08-17T12:04:34.075Z,92.90
2022-08-17T12:07:16.816Z,92.40
2022-08-17T12:09:51.433Z,92.10
2022-08-17T12:12:25.416Z,91.80
2022-08-17T12:15:10.197Z,91.60
2022-08-17T12:17:41.206Z,91.10
2022-08-17T12:20:26.411Z,91.20
2022-08-17T12:23:17.962Z,91.30
2022-08-17T12:25:52.599Z,91.30
2022-08-17T12:28:30.403Z,91.40
2022-08-17T12:31:05.491Z,91.60
2022-08-17T12:33:35.881Z,91.60
2022-08-17T12:36:06.464Z,91.30
2022-08-17T12:38:36.523Z,91.40
2022-08-17T12:41:06.967Z,91.40
2022-08-17T12:43:34.278Z,91.50
2022-08-17T12:46:13.352Z,91.60
2022-08-17T12:48:59.850Z,91.20
2022-08-17T12:51:27.997Z,91.30
2022-08-17T12:53:57.520Z,91.30
2022-08-17T12:56:25.769Z,91.00
2022-08-17T12:58:56.791Z,90.90
2022-08-17T13:01:24.604Z,91.10
2022-08-17T13:03:55.145Z,91.60
2022-08-17T13:06:30.172Z,91.80
2022-08-17T13:09:08.016Z,92.30
2022-08-17T13:11:35.257Z,92.20
2022-08-17T13:14:10.190Z,92.00
2022-08-17T13:16:37.813Z,92.00
2022-08-17T13:19:09.795Z,91.90
2022-08-17T13:21:44.070Z,91.70
2022-08-17T13:24:21.021Z,91.60
2022-08-17T13:27:08.581Z,91.20
2022-08-17T13:29:44.999Z,90.80
2022-08-17T13:32:45.147Z,90.70
2022-08-17T13:35:34.481Z,90.70
2022-08-17T13:38:13.324Z,91.00
2022-08-17T13:40:52.431Z,91.10
2022-08-17T13:43:45.707Z,91.40
2022-08-17T13:46:19.024Z,91.00
2022-08-17T13:48:56.107Z,90.80
2022-08-17T13:51:29.541Z,90.80
2022-08-17T13:54:02.585Z,90.80
2022-08-17T13:56:54.286Z,91.00
2022-08-17T13:59:52.651Z,91.40
2022-08-17T14:02:19.506Z,91.40
2022-08-17T14:04:48.404Z,91.70
2022-08-17T14:07:15.640Z,91.60
2022-08-17T14:09:53.817Z,91.70
2022-08-17T14:12:23.463Z,91.70
2022-08-17T14:14:52.085Z,91.10
2022-08-17T14:17:19.626Z,90.80
2022-08-17T14:19:46.894Z,90.70
2022-08-17T14:22:20.105Z,90.70
2022-08-17T14:24:47.366Z,90.70
2022-08-17T14:27:14.652Z,90.90
2022-08-17T14:29:42.091Z,91.00
2022-08-17T14:32:42.015Z,90.40
2022-08-17T14:35:12.397Z,90.20
2022-08-17T14:37:40.131Z,90.40
2022-08-17T14:40:11.503Z,90.10
2022-08-17T14:42:41.601Z,90.00
2022-08-17T14:45:31.495Z,89.50
2022-08-17T14:47:59.012Z,89.20
2022-08-17T14:50:26.326Z,89.00
2022-08-17T14:52:53.828Z,89.00
2022-08-17T14:55:23.013Z,89.20
2022-08-17T14:57:50.536Z,89.00
2022-08-17T15:00:18.220Z,89.70
2022-08-17T15:02:57.487Z,90.10
2022-08-17T15:05:28.579Z,89.80
2022-08-17T15:07:56.008Z,90.00
2022-08-17T15:10:25.883Z,89.80
2022-08-17T15:12:53.684Z,89.50
2022-08-17T15:15:20.970Z,90.00
2022-08-17T15:17:48.406Z,90.40
2022-08-17T15:20:20.937Z,90.50
2022-08-17T15:22:49.795Z,90.70
2022-08-17T15:25:18.883Z,90.30
2022-08-17T15:27:47.030Z,90.10
2022-08-17T15:30:16.451Z,88.30
2022-08-17T15:32:46.833Z,88.90
2022-08-17T15:35:28.954Z,88.60
2022-08-17T15:38:03.386Z,88.70
2022-08-17T15:40:36.752Z,89.70
2022-08-17T15:43:10.003Z,88.10
2022-08-17T15:45:39.206Z,88.70
2022-08-17T15:48:06.736Z,88.50
2022-08-17T15:50:33.952Z,87.70
2022-08-17T15:53:02.294Z,89.00
2022-08-17T15:55:31.057Z,89.90
2022-08-17T15:57:58.606Z,90.00
2022-08-17T16:00:26.177Z,90.00
2022-08-17T16:03:14.278Z,90.30
2022-08-17T16:05:41.077Z,90.20
2022-08-17T16:08:08.786Z,90.30
2022-08-17T16:10:36.233Z,90.30
2022-08-17T16:13:04.408Z,90.20
2022-08-17T16:15:32.033Z,90.30
2022-08-17T16:17:59.604Z,90.60
2022-08-17T16:20:27.362Z,90.60
2022-08-17T16:22:55.238Z,90.70
2022-08-17T16:25:51.937Z,91.00
2022-08-17T16:28:14.883Z,91.20
2022-08-17T16:30:42.786Z,91.10
2022-08-17T16:33:11.159Z,91.10
2022-08-17T16:35:38.471Z,91.30
2022-08-17T16:38:07.196Z,91.50
2022-08-17T16:40:35.843Z,91.40
2022-08-17T16:43:04.111Z,91.40
2022-08-17T16:45:31.623Z,91.10
2022-08-17T16:47:58.836Z,90.90
2022-08-17T16:50:26.048Z,90.80
2022-08-17T16:53:07.339Z,90.60
2022-08-17T16:55:35.040Z,90.70
2022-08-17T16:58:06.093Z,90.60
2022-08-17T17:00:33.670Z,90.70
2022-08-17T17:03:19.865Z,90.90
2022-08-17T17:06:20.996Z,90.90
2022-08-17T17:09:10.410Z,90.80
2022-08-17T17:11:43.935Z,90.70
2022-08-17T17:14:42.351Z,90.60
2022-08-17T17:17:18.025Z,90.40
2022-08-17T17:20:00.292Z,90.40
2022-08-17T17:22:51.234Z,90.30
2022-08-17T17:25:33.660Z,90.30
2022-08-17T17:28:13.147Z,90.10
2022-08-17T17:30:43.350Z,90.00
2022-08-17T17:33:16.005Z,90.30
2022-08-17T17:35:51.011Z,90.00
2022-08-17T17:38:23.041Z,89.60
2022-08-17T17:41:03.398Z,88.90
2022-08-17T17:43:38.878Z,89.90
2022-08-17T17:46:28.609Z,88.40
2022-08-17T17:48:57.856Z,88.70
2022-08-17T17:52:06.625Z,88.90
2022-08-17T17:54:42.451Z,90.00
2022-08-17T17:57:35.525Z,89.30
2022-08-17T18:00:02.732Z,89.70
2022-08-17T18:02:42.141Z,90.00
2022-08-17T18:05:43.903Z,90.10
2022-08-17T18:08:41.962Z,90.30
2022-08-17T18:11:12.739Z,90.40
2022-08-17T18:13:53.206Z,90.40
2022-08-17T18:16:21.152Z,90.60
2022-08-17T18:18:51.547Z,90.60
2022-08-17T18:21:25.339Z,90.80
2022-08-17T18:23:54.670Z,91.10
2022-08-17T18:26:45.118Z,91.30
2022-08-17T18:29:27.702Z,91.50
2022-08-17T18:32:22.132Z,91.70
2022-08-17T18:34:57.121Z,91.90
2022-08-17T18:38:02.056Z,92.00
2022-08-17T18:40:36.008Z,92.20
2022-08-17T18:43:05.763Z,92.20
2022-08-17T18:45:44.485Z,92.20
2022-08-17T18:48:29.295Z,92.40
2022-08-17T18:51:35.742Z,92.70
2022-08-17T18:54:22.744Z,92.90
2022-08-17T18:57:12.907Z,93.00
2022-08-17T18:59:41.861Z,93.20
2022-08-17T19:02:19.460Z,93.50
2022-08-17T19:05:01.231Z,93.70
2022-08-17T19:07:44.591Z,93.90
2022-08-17T19:10:22.569Z,94.40
2022-08-17T19:13:12.456Z,94.60
2022-08-17T19:16:15.326Z,94.80
2022-08-17T19:19:00.162Z,94.90
2022-08-17T19:21:36.297Z,95.20
2022-08-17T19:24:06.369Z,95.40
2022-08-17T19:26:53.338Z,95.50
2022-08-17T19:29:40.929Z,95.80
2022-08-17T19:32:09.992Z,95.90
2022-08-17T19:34:39.553Z,95.80
